• Join FlightAware (Why Join?)
  • Login
  • US Flag 
05:56PM EST


 

Airport Tracker/Info


-or-


 

Live Flight TrackerFlight Track Log ✈ SKW7375 ✈ 27-Apr-2013 ✈ KMSP - KBRD

Flight Track Log - Related Links

Times and Time Zones

All times are in EDT time to prevent confusion due to time zone crossing. See the SKW7375 flight status page for this flight to view local times or setup timezone preferences in your user account.

Time Position Orientation Groundspeed Altitude Reporting Facility
EDT Latitude Longitude Course Direction KTS MPH feet Rate Location/Type
08:30PM 44.8833 -93.1833 339° North 151 174 1,900  Level Minneapolis TRACON
08:30PM 44.8764 -93.1394 103° East 183 211 3,100 2,700 Climbing Minneapolis Center
08:31PM 44.8917 -93.0556 76° East 247 284 6,300 3,180 Climbing Minneapolis Center
08:32PM 44.9672 -93.0442 North 277 319 9,600 2,700 Climbing Minneapolis Center
08:33PM 45.2174 -93.4027 343° North  Level FlightAware Approximate
08:33PM 45.0494 -93.0422 North 297 342 11,900  Level Minneapolis Center
08:34PM 45.3059 -93.4476 339° North  Level FlightAware Approximate
08:34PM 45.1508 -93.0969 339° North 365 420 12,000  Level Minneapolis Center
08:35PM 45.3934 -93.4963 339° North  Level FlightAware Approximate
08:36PM 45.2378 -93.1458 338° Northwest 365 420 12,000  Level Minneapolis Center
08:37PM 45.3297 -93.1975 338° Northwest 359 413 12,000  Level Minneapolis Center
08:38PM 45.4372 -93.2686 335° Northwest 355 409 12,000  Level Minneapolis Center
08:39PM 45.5172 -93.3358 330° Northwest 337 388 12,000  Level Minneapolis Center
08:40PM 45.5797 -93.3856 331° Northwest 326 375 12,000  Level Minneapolis Center
08:41PM 45.6725 -93.4619 330° Northwest 322 371 12,000  Level Minneapolis Center
08:42PM 45.7481 -93.5250 330° Northwest 318 366 12,000  Level Minneapolis Center
08:43PM 45.8247 -93.5881 330° Northwest 319 367 12,000 -60 Level Minneapolis Center
08:44PM 45.8994 -93.6497 330° Northwest 313 360 11,900  Descending Minneapolis Center
08:45PM 45.9694 -93.7092 329° Northwest 300 345 12,000  Climbing Minneapolis Center
08:46PM 46.0514 -93.7772 330° Northwest 289 333 12,000 -360 Level Minneapolis Center
08:47PM 46.1183 -93.8325 330° Northwest 282 325 11,300 -1,140 Descending Minneapolis Center
08:48PM 46.1808 -93.8836 330° Northwest 268 308 9,700 -1,620 Descending Minneapolis Center
08:49PM 46.2433 -93.9369 329° Northwest 270 311 8,000 -1,680 Descending Minneapolis Center
08:50PM 46.2944 -94.0031 318° Northwest 249 287 6,300 -1,620 Descending Minneapolis Center
08:51PM 46.3144 -94.0733 292° West 211 243 4,700 -1,560 Descending Minneapolis Center